Bishop International, MI

9:40 PM EDT on August 30, 2015 (GMT -0400)
Flint Twp / Dye Elementary | | Change Station
CLOSE
Current Station
Personal Weather Station
Location: Flint, MI
Elevation: 741 ft
Nearby Weather Stations

Elev 741 ft 43.01 °N, 83.76 °W | Updated 6 minutes ago

Clear
Clear
67.5 °F
Feels Like 67.5 °F
N
0.0
Wind Variable Wind from SW

Today
High -- | Low -- °F
--% Chance of Precip.
Yesterday
High -- | Low -- °F
Precip. -- in
6:57 AM 8:13 PM
Full, 97% visible
Pressure 30.02 in
Visibility 8.0 miles
Clouds Clear
Dew Point 64 °F
Humidity 88%
Rainfall 0.00 in
Snow Depth Not available.
UV 0 out of 12
Pollen 9.60 out of 12
Air Quality Not available.
Flu Activity Not available.
METAR KFNT 310053Z 00000KT 8SM CLR 23/19 A3003 RMK AO2 SLP164 T02280194 $
Pressure 30.02 in
Visibility 8.0 miles
Clouds Clear
Dew Point 64 °F
Humidity 88%
Rainfall 0.00 in
Snow Depth Not available.
UV 0 out of 12
Pollen 9.60 out of 12
Air Quality Not available.
Flu Activity Not available.
METAR KFNT 310053Z 00000KT 8SM CLR 23/19 A3003 RMK AO2 SLP164 T02280194 $

10-Day Weather Forecast

×

Almanac

Astronomy

Aug. 30, 2015 Rise Set
Actual Time
Civil Twilight
Nautical Twilight
Astronomical Twilight
Moon
Length of Visible Light
Length of Day
Tomorrow will be .
, % of the Moon is Illuminated

Today's Extremes

State Highs State Lows

Community

WunderPhotos

Upload Photos

1,851,145 photos uploaded!

WunderBlogs® & News

Nearby

Air Quality

  Air Quality AQ Index Pollutant
Not available.

Snow Depth

Station Depth Elevation

Earthquake Activity

City Distance Mag. Time & Date
Minimum magnitude displayed is 2.5.

Coastal Water Temperatures

Place Temperature

Stations

Nearby Weather Stations

Station Location Temp. Windchill Dew Point Humidity Wind Precip. Elev Updated Type